Time;durP1;ratioP1;P1;durP2;ratioP2;P2;SDS_P1;SDS_P2;PMS_P1;PMS_P2;Temp;Humidity;BMP_temperature;BMP_pressure;BME280_temperature;BME280_humidity;BME280_pressure;Samples;Min_cycle;Max_cycle;Signal;HPM_P1;HPM_P2
2023/10/19 00:01:17;;;;;;;1.70;1.00;;;;;;;16.01;48.58;101735.50;105855;1263;1002844;-59
2023/10/19 00:03:44;;;;;;;1.60;0.90;;;;;;;16.00;48.51;101736.56;106529;1263;26532;-59
2023/10/19 00:06:11;;;;;;;1.20;1.10;;;;;;;15.99;48.49;101729.79;106378;1262;23893;-59
2023/10/19 00:08:42;;;;;;;1.40;1.00;;;;;;;15.97;48.50;101730.89;106630;1262;22532;-59
2023/10/19 00:11:11;;;;;;;3.30;1.10;;;;;;;15.94;48.44;101732.89;106550;1262;25350;-59
2023/10/19 00:13:38;;;;;;;1.70;1.20;;;;;;;15.91;48.33;101729.83;106611;1266;22532;-59
2023/10/19 00:16:12;;;;;;;2.10;1.10;;;;;;;15.89;48.43;101732.34;106244;1261;25469;-59
2023/10/19 00:18:42;;;;;;;2.10;1.10;;;;;;;15.87;48.31;101727.14;106112;1274;22685;-59
2023/10/19 00:21:20;;;;;;;5.30;1.00;;;;;;;15.87;48.22;101729.61;106195;1278;24250;-59
2023/10/19 00:23:48;;;;;;;1.40;0.80;;;;;;;15.87;48.22;101726.46;106253;1262;25533;-60
2023/10/19 00:26:19;;;;;;;1.90;1.10;;;;;;;15.86;48.09;101727.35;106245;1264;23142;-59
2023/10/19 00:28:56;;;;;;;1.50;1.20;;;;;;;15.87;47.97;101727.52;105728;1274;407996;-59
2023/10/19 00:31:24;;;;;;;2.10;0.90;;;;;;;15.86;47.90;101722.28;106215;1264;25255;-59
2023/10/19 00:33:52;;;;;;;1.20;1.00;;;;;;;15.85;47.81;101720.55;106280;1262;23262;-60
2023/10/19 00:36:22;;;;;;;1.30;0.80;;;;;;;15.84;47.74;101719.54;106290;1271;22568;-60
2023/10/19 00:41:29;;;;;;;3.80;1.00;;;;;;;15.77;47.74;101715.73;106622;1264;25432;-59
2023/10/19 00:44:10;;;;;;;1.60;0.90;;;;;;;15.64;48.02;101715.55;105804;1264;1003548;-60
2023/10/19 00:46:43;;;;;;;2.10;1.10;;;;;;;15.60;48.13;101718.63;106474;1263;25378;-59
2023/10/19 00:49:13;;;;;;;2.10;1.10;;;;;;;15.58;48.18;101711.35;106561;1274;24292;-59
2023/10/19 00:54:37;;;;;;;1.50;1.00;;;;;;;15.58;48.17;101708.58;106616;1271;22536;-59
2023/10/19 00:57:10;;;;;;;2.20;1.10;;;;;;;15.58;48.23;101705.05;106356;1268;25361;-59
2023/10/19 00:59:54;;;;;;;2.00;1.20;;;;;;;15.58;48.20;101705.92;106602;1274;24234;-59
2023/10/19 01:02:28;;;;;;;2.50;1.00;;;;;;;15.58;48.15;101706.83;106590;1272;23474;-59
2023/10/19 01:05:14;;;;;;;2.20;1.10;;;;;;;15.57;48.04;101707.18;106537;1269;25444;-59
2023/10/19 01:07:44;;;;;;;2.40;1.10;;;;;;;15.56;47.95;101710.36;106506;1266;25412;-59
2023/10/19 01:10:12;;;;;;;1.20;1.00;;;;;;;15.52;47.96;101710.81;106546;1272;25373;-59
2023/10/19 01:12:40;;;;;;;1.10;0.80;;;;;;;15.50;48.03;101706.67;106492;1262;25363;-59
2023/10/19 01:17:52;;;;;;;1.90;1.00;;;;;;;15.48;48.16;101712.30;106340;1281;25386;-58
2023/10/19 01:28:28;;;;;;;1.20;1.00;;;;;;;15.49;48.36;101698.30;106405;1266;24530;-59
2023/10/19 01:30:56;;;;;;;2.60;1.30;;;;;;;15.51;48.40;101697.03;106321;1262;25339;-59
2023/10/19 01:33:24;;;;;;;1.90;1.10;;;;;;;15.51;48.33;101695.98;106366;1272;25549;-59
2023/10/19 01:38:38;;;;;;;1.60;0.90;;;;;;;15.45;48.45;101688.09;106349;1272;25485;-58
2023/10/19 01:41:08;;;;;;;1.70;1.00;;;;;;;15.44;48.51;101688.98;106304;1262;22555;-59
2023/10/19 01:43:36;;;;;;;2.10;1.10;;;;;;;15.42;48.64;101683.97;106383;1259;22534;-59
2023/10/19 01:46:11;;;;;;;4.00;1.60;;;;;;;15.40;48.81;101685.39;106468;1272;25369;-59
2023/10/19 01:48:40;;;;;;;2.00;1.00;;;;;;;15.40;48.80;101685.41;106547;1274;25498;-59
2023/10/19 01:51:11;;;;;;;1.00;0.70;;;;;;;15.39;49.03;101684.04;106533;1271;22539;-59
2023/10/19 01:53:43;;;;;;;2.20;0.90;;;;;;;15.38;49.13;101683.88;106552;1262;25430;-59
2023/10/19 01:56:12;;;;;;;1.40;0.80;;;;;;;15.39;49.15;101681.41;106481;1262;25513;-60
2023/10/19 01:58:40;;;;;;;1.30;1.10;;;;;;;15.39;49.21;101682.80;106302;1281;24417;-59
2023/10/19 02:01:14;;;;;;;3.20;1.30;;;;;;;15.38;49.27;101678.98;106105;1281;25403;-59
2023/10/19 02:03:44;;;;;;;1.90;1.10;;;;;;;15.37;49.35;101679.20;106245;1262;25260;-59
2023/10/19 02:06:28;;;;;;;2.70;1.30;;;;;;;15.35;49.40;101673.48;106387;1278;24331;-59
2023/10/19 02:09:09;;;;;;;2.20;1.40;;;;;;;15.33;49.53;101674.59;106206;1281;22520;-58
2023/10/19 02:11:41;;;;;;;2.40;1.30;;;;;;;15.32;49.66;101674.25;106229;1273;25335;-58
2023/10/19 02:14:14;;;;;;;1.80;1.20;;;;;;;15.31;49.63;101674.64;105889;1281;25374;-59
2023/10/19 02:16:43;;;;;;;2.60;1.30;;;;;;;15.30;49.68;101674.46;106505;1275;22549;-59
2023/10/19 02:19:10;;;;;;;1.70;1.20;;;;;;;15.25;49.80;101674.09;106601;1271;22529;-58
2023/10/19 02:21:41;;;;;;;2.40;1.10;;;;;;;15.29;49.85;101677.66;106612;1263;25396;-58
2023/10/19 02:24:09;;;;;;;4.00;1.20;;;;;;;15.30;49.83;101673.79;106538;1274;25396;-59
2023/10/19 02:26:37;;;;;;;1.50;1.00;;;;;;;15.30;49.84;101676.40;106547;1262;22536;-59
2023/10/19 02:29:07;;;;;;;4.20;1.10;;;;;;;15.18;50.08;101672.88;106500;1262;25419;-60
2023/10/19 02:31:37;;;;;;;2.80;1.20;;;;;;;15.11;50.27;101672.19;106478;1271;24437;-59
2023/10/19 02:34:05;;;;;;;1.70;1.10;;;;;;;15.08;50.29;101675.43;106642;1268;25369;-59
2023/10/19 02:36:32;;;;;;;1.40;1.20;;;;;;;15.04;50.46;101676.03;106367;1272;25350;-59
2023/10/19 02:39:07;;;;;;;3.80;1.40;;;;;;;15.02;50.51;101673.64;106540;1271;25487;-58
2023/10/19 02:41:35;;;;;;;3.10;1.10;;;;;;;15.08;50.51;101672.80;106448;1275;25409;-59
2023/10/19 02:44:09;;;;;;;1.70;1.00;;;;;;;15.16;50.33;101674.33;106585;1263;25358;-59
2023/10/19 02:46:41;;;;;;;2.60;1.20;;;;;;;15.17;50.32;101673.08;106598;1274;25347;-60
2023/10/19 02:49:11;;;;;;;;;;;;;;;15.18;50.36;101673.39;106620;1263;22515;-60
2023/10/19 02:51:41;;;;;;;2.80;1.30;;;;;;;15.21;50.34;101675.23;106540;1272;25500;-60
2023/10/19 02:54:08;;;;;;;3.80;1.10;;;;;;;15.21;50.28;101676.11;106579;1263;22771;-59
2023/10/19 02:56:36;;;;;;;1.60;1.00;;;;;;;15.22;50.20;101672.59;106580;1264;25398;-59
2023/10/19 02:59:07;;;;;;;2.80;1.30;;;;;;;15.21;50.24;101671.58;106574;1276;25492;-59
2023/10/19 03:01:34;;;;;;;3.50;1.40;;;;;;;15.20;50.24;101670.56;106550;1272;25354;-59
2023/10/19 03:04:03;;;;;;;1.70;1.10;;;;;;;15.19;50.27;101669.89;106585;1271;22548;-59
2023/10/19 03:06:33;;;;;;;1.20;1.00;;;;;;;15.16;50.37;101667.17;106299;1266;25311;-59
2023/10/19 03:09:12;;;;;;;1.30;1.00;;;;;;;15.17;50.45;101668.70;106474;1273;24061;-59
2023/10/19 03:11:40;;;;;;;1.90;1.30;;;;;;;15.16;50.54;101665.58;106396;1267;25390;-59
2023/10/19 03:14:08;;;;;;;2.30;1.30;;;;;;;15.17;50.58;101666.25;106362;1268;25442;-59
2023/10/19 03:16:36;;;;;;;1.90;1.30;;;;;;;15.17;50.65;101666.78;105632;1275;1003091;-59
2023/10/19 03:19:04;;;;;;;2.70;1.40;;;;;;;15.18;50.58;101663.77;106389;1275;25438;-59
2023/10/19 03:21:41;;;;;;;1.50;1.00;;;;;;;15.20;50.54;101660.94;106550;1275;25375;-59
2023/10/19 03:24:12;;;;;;;3.30;1.30;;;;;;;15.22;50.54;101665.27;106617;1270;25348;-60
2023/10/19 03:26:49;;;;;;;1.90;1.20;;;;;;;15.23;50.48;101662.95;106590;1262;24373;-59
2023/10/19 03:29:26;;;;;;;2.90;1.30;;;;;;;15.21;50.48;101662.99;106585;1264;25386;-60
2023/10/19 03:31:53;;;;;;;3.20;1.30;;;;;;;15.06;50.75;101660.79;105834;1273;1003177;-59
2023/10/19 03:34:23;;;;;;;3.90;1.10;;;;;;;15.06;50.73;101664.48;106485;1273;25348;-59
2023/10/19 03:36:51;;;;;;;1.80;1.30;;;;;;;15.06;50.66;101660.10;106462;1274;25351;-59
2023/10/19 03:39:21;;;;;;;2.60;1.30;;;;;;;15.05;50.80;101660.48;105651;1263;1003805;-58
2023/10/19 03:41:51;;;;;;;1.70;1.30;;;;;;;15.02;50.76;101663.15;106313;1273;22561;-58
2023/10/19 03:46:54;;;;;;;1.50;1.00;;;;;;;15.01;50.90;101655.86;106351;1263;25396;-59
2023/10/19 03:49:22;;;;;;;;;;;;;;;15.00;50.98;101650.13;106372;1274;24201;-59
2023/10/19 03:52:00;;;;;;;3.30;1.10;;;;;;;15.01;51.06;101649.21;106554;1263;25367;-59
2023/10/19 03:54:28;;;;;;;1.80;1.30;;;;;;;15.17;50.85;101647.54;106510;1273;25500;-59
2023/10/19 03:56:57;;;;;;;2.20;1.10;;;;;;;15.13;50.97;101644.86;106509;1273;25711;-59
2023/10/19 03:59:29;;;;;;;2.20;1.20;;;;;;;15.29;50.69;101643.05;106311;1271;25351;-59
2023/10/19 04:01:59;;;;;;;1.70;1.30;;;;;;;15.32;50.66;101646.83;106585;1273;25390;-59
2023/10/19 04:04:29;;;;;;;1.20;1.20;;;;;;;15.11;51.22;101645.09;106623;1273;23310;-60
2023/10/19 04:06:59;;;;;;;3.60;1.20;;;;;;;15.05;51.41;101640.55;106548;1277;22599;-59
2023/10/19 04:09:29;;;;;;;3.00;1.10;;;;;;;15.15;51.35;101637.13;106543;1278;25355;-59
2023/10/19 04:11:57;;;;;;;3.60;1.00;;;;;;;15.28;51.17;101639.40;106517;1272;24444;-59
2023/10/19 04:14:24;;;;;;;3.30;1.10;;;;;;;15.23;51.30;101641.10;106297;1280;24241;-59
2023/10/19 04:16:52;;;;;;;2.60;1.20;;;;;;;15.17;51.60;101640.91;106334;1276;25386;-59
2023/10/19 04:19:19;;;;;;;1.70;1.20;;;;;;;15.30;51.50;101644.08;106624;1274;25347;-59
2023/10/19 04:21:47;;;;;;;2.90;1.10;;;;;;;15.37;51.42;101643.70;106645;1263;25371;-59
2023/10/19 04:24:14;;;;;;;1.30;0.80;;;;;;;15.39;51.41;101643.45;106478;1263;25519;-59
2023/10/19 04:26:42;;;;;;;2.70;1.10;;;;;;;15.41;51.46;101647.27;106550;1264;24232;-59
2023/10/19 04:29:11;;;;;;;2.60;1.50;;;;;;;15.44;51.51;101644.05;106265;1273;25420;-59
2023/10/19 04:31:49;;;;;;;2.90;1.10;;;;;;;15.47;51.48;101645.71;106561;1263;25393;-59
2023/10/19 04:34:20;;;;;;;1.50;1.10;;;;;;;15.47;51.58;101644.84;106620;1268;25387;-59
2023/10/19 04:36:48;;;;;;;2.30;1.20;;;;;;;15.51;51.53;101644.40;106323;1267;22543;-59
2023/10/19 04:39:19;;;;;;;1.10;1.00;;;;;;;15.54;51.54;101647.27;106495;1261;22545;-60
2023/10/19 04:41:48;;;;;;;1.90;1.20;;;;;;;15.56;51.52;101648.44;106524;1263;25346;-59
2023/10/19 04:44:15;;;;;;;1.70;0.80;;;;;;;15.60;51.51;101653.05;106576;1273;25358;-59
2023/10/19 04:46:43;;;;;;;2.20;1.10;;;;;;;15.65;51.41;101651.50;106636;1263;22649;-59
2023/10/19 04:49:10;;;;;;;2.50;0.80;;;;;;;15.66;51.34;101655.48;106587;1263;25377;-58
2023/10/19 04:51:38;;;;;;;2.10;1.10;;;;;;;15.67;51.33;101653.55;106566;1273;25445;-59
2023/10/19 04:54:08;;;;;;;2.00;1.00;;;;;;;15.61;51.49;101656.02;106598;1263;23913;-59
2023/10/19 04:56:36;;;;;;;1.00;0.80;;;;;;;15.43;51.98;101658.23;106364;1264;22526;-59
2023/10/19 04:59:03;;;;;;;1.40;0.90;;;;;;;15.42;52.10;101659.48;106623;1270;25548;-59
2023/10/19 05:01:33;;;;;;;2.70;0.90;;;;;;;15.44;52.12;101655.24;106557;1264;22540;-59
2023/10/19 05:04:01;;;;;;;4.40;1.20;;;;;;;15.47;52.08;101653.59;106609;1273;25536;-59
2023/10/19 05:06:28;;;;;;;4.50;1.60;;;;;;;15.49;52.17;101654.06;106553;1273;25365;-60
2023/10/19 05:08:57;;;;;;;3.80;1.20;;;;;;;15.54;52.19;101650.98;106654;1264;25369;-58
2023/10/19 05:11:24;;;;;;;4.00;1.20;;;;;;;15.57;52.18;101649.27;106598;1263;25375;-58
2023/10/19 05:13:51;;;;;;;4.70;1.80;;;;;;;15.62;52.24;101648.77;106592;1263;25515;-59
2023/10/19 05:16:18;;;;;;;4.10;1.40;;;;;;;15.71;52.19;101652.03;106396;1273;25386;-59
2023/10/19 05:18:45;;;;;;;4.10;1.50;;;;;;;15.76;52.28;101651.53;106531;1267;25432;-59
2023/10/19 05:21:12;;;;;;;1.40;1.20;;;;;;;15.81;52.30;101653.85;105879;1273;25350;-59
2023/10/19 05:23:39;;;;;;;3.40;1.20;;;;;;;15.87;52.31;101652.95;106198;1277;24342;-59
2023/10/19 05:26:07;;;;;;;4.40;1.50;;;;;;;15.94;52.45;101655.21;106189;1264;22623;-60
2023/10/19 05:28:34;;;;;;;10.50;1.70;;;;;;;16.00;52.46;101655.54;106548;1257;25426;-59
2023/10/19 05:31:04;;;;;;;5.90;1.60;;;;;;;16.05;52.45;101653.29;106519;1273;25370;-59
2023/10/19 05:33:32;;;;;;;2.80;1.50;;;;;;;16.10;52.45;101655.23;106586;1264;22534;-59
2023/10/19 05:36:01;;;;;;;4.10;1.30;;;;;;;16.17;52.23;101656.95;106655;1264;25490;-59
2023/10/19 05:38:28;;;;;;;3.30;1.20;;;;;;;16.24;51.97;101655.15;106583;1260;25375;-59
2023/10/19 05:40:57;;;;;;;2.80;1.20;;;;;;;16.30;51.78;101657.42;106534;1257;22536;-59
2023/10/19 05:43:25;;;;;;;5.20;1.40;;;;;;;16.36;51.68;101657.26;106600;1257;25513;-59
2023/10/19 05:45:51;;;;;;;2.80;1.30;;;;;;;16.43;51.35;101658.06;106530;1261;25257;-59
2023/10/19 05:48:20;;;;;;;1.80;0.80;;;;;;;16.48;51.15;101658.45;106525;1264;25444;-59
2023/10/19 05:50:47;;;;;;;1.50;1.10;;;;;;;16.52;50.88;101663.08;106618;1262;22536;-60
2023/10/19 05:53:18;;;;;;;2.20;1.00;;;;;;;16.55;50.71;101660.86;106343;1261;25497;-58
2023/10/19 05:55:45;;;;;;;1.20;0.90;;;;;;;16.61;50.49;101663.84;106550;1264;25339;-58
2023/10/19 05:58:12;;;;;;;1.60;0.90;;;;;;;16.65;50.34;101662.31;106566;1261;25347;-59
2023/10/19 06:00:40;;;;;;;2.80;1.10;;;;;;;16.70;50.20;101664.94;106543;1268;25351;-59
2023/10/19 06:03:07;;;;;;;1.90;0.90;;;;;;;16.76;50.07;101667.38;106564;1263;25378;-59
2023/10/19 06:05:34;;;;;;;1.80;1.10;;;;;;;16.81;49.82;101668.61;106368;1278;26061;-60
2023/10/19 06:08:01;;;;;;;1.80;1.00;;;;;;;16.87;49.63;101671.20;106568;1267;23012;-60
2023/10/19 06:10:29;;;;;;;6.20;1.00;;;;;;;16.91;49.46;101670.20;106579;1257;25350;-60
2023/10/19 06:12:57;;;;;;;3.60;0.70;;;;;;;16.90;49.33;101668.47;106363;1273;25383;-60
2023/10/19 06:15:24;;;;;;;2.40;1.00;;;;;;;16.82;49.52;101673.64;106332;1261;24300;-60
2023/10/19 06:17:52;;;;;;;4.30;1.30;;;;;;;16.85;49.44;101676.00;106599;1277;25505;-60
2023/10/19 06:20:19;;;;;;;3.30;1.00;;;;;;;17.04;49.00;101678.35;106579;1273;25463;-60
2023/10/19 06:22:50;;;;;;;1.50;0.80;;;;;;;17.06;48.94;101680.55;106538;1279;25540;-60
2023/10/19 06:25:21;;;;;;;8.00;2.10;;;;;;;17.02;49.11;101679.80;106525;1258;25252;-60
2023/10/19 06:27:49;;;;;;;2.10;1.10;;;;;;;17.07;48.96;101676.14;106286;1265;22552;-60
2023/10/19 06:30:22;;;;;;;4.20;1.70;;;;;;;17.13;48.98;101673.30;106586;1273;22583;-60
2023/10/19 06:32:53;;;;;;;5.00;1.20;;;;;;;17.26;48.88;101677.92;106558;1271;25420;-60
2023/10/19 06:35:20;;;;;;;6.30;1.20;;;;;;;17.53;48.34;101674.69;106643;1259;24241;-60
2023/10/19 06:37:47;;;;;;;5.20;1.60;;;;;;;17.78;47.76;101674.65;106373;1266;25384;-60
2023/10/19 06:40:16;;;;;;;2.40;1.30;;;;;;;17.93;47.42;101669.73;106596;1258;25365;-60
2023/10/19 06:42:45;;;;;;;4.10;0.80;;;;;;;18.00;47.31;101669.48;106619;1258;22732;-60
2023/10/19 06:45:16;;;;;;;3.50;1.50;;;;;;;18.05;47.23;101671.92;106650;1263;23575;-59
2023/10/19 06:47:44;;;;;;;4.00;1.20;;;;;;;18.09;47.19;101673.16;105852;1258;1003002;-59
2023/10/19 06:50:15;;;;;;;3.40;1.00;;;;;;;18.13;47.12;101673.88;106585;1270;22516;-60
2023/10/19 06:52:44;;;;;;;4.70;1.30;;;;;;;18.17;47.25;101675.47;106376;1275;22533;-59
2023/10/19 06:55:16;;;;;;;4.50;1.50;;;;;;;18.21;47.46;101673.39;105853;1270;1003045;-61
2023/10/19 06:57:44;;;;;;;2.30;1.30;;;;;;;18.26;47.48;101674.25;106318;1274;25369;-59
2023/10/19 07:00:15;;;;;;;4.70;1.10;;;;;;;18.31;47.50;101672.45;106390;1262;25510;-59
2023/10/19 07:02:43;;;;;;;2.80;1.00;;;;;;;18.36;47.42;101672.45;106363;1262;22659;-60
2023/10/19 07:05:11;;;;;;;3.00;1.10;;;;;;;18.42;47.36;101668.00;106226;1257;22532;-59
2023/10/19 07:07:40;;;;;;;3.40;1.10;;;;;;;18.47;47.39;101668.86;106077;1270;22547;-59
2023/10/19 07:10:09;;;;;;;3.70;1.30;;;;;;;18.52;47.44;101665.15;106187;1270;22540;-59
2023/10/19 07:12:39;;;;;;;4.40;1.50;;;;;;;18.57;47.41;101662.31;106406;1257;22530;-59
2023/10/19 07:15:07;;;;;;;5.80;1.40;;;;;;;18.61;47.38;101659.68;106384;1273;23337;-60
2023/10/19 07:17:37;;;;;;;5.70;1.10;;;;;;;18.65;47.55;101657.77;106292;1262;22544;-60
2023/10/19 07:20:06;;;;;;;4.80;1.30;;;;;;;18.68;47.43;101656.57;106555;1264;25367;-60
2023/10/19 07:22:33;;;;;;;2.40;1.30;;;;;;;18.60;47.50;101657.45;106558;1259;24674;-59
2023/10/19 07:25:05;;;;;;;4.00;1.20;;;;;;;18.60;47.52;101657.62;106390;1261;24168;-59
2023/10/19 07:27:33;;;;;;;5.40;1.20;;;;;;;18.72;47.21;101656.94;106610;1264;25487;-59
2023/10/19 07:30:09;;;;;;;3.60;1.50;;;;;;;18.70;47.36;101651.59;106660;1274;24298;-59
2023/10/19 07:32:38;;;;;;;6.10;1.40;;;;;;;18.74;47.26;101648.95;106360;1276;25351;-59
2023/10/19 07:35:06;;;;;;;7.50;1.60;;;;;;;18.88;46.84;101647.13;106220;1265;25347;-60
2023/10/19 07:37:33;;;;;;;8.50;1.60;;;;;;;18.95;46.54;101645.79;106635;1257;22544;-60
2023/10/19 07:40:00;;;;;;;5.40;1.50;;;;;;;19.00;46.15;101644.00;106617;1259;25490;-60
2023/10/19 07:42:27;;;;;;;3.30;1.30;;;;;;;19.05;45.72;101643.77;106607;1264;23176;-61
2023/10/19 07:44:54;;;;;;;4.00;1.60;;;;;;;19.08;45.32;101638.85;106522;1268;25506;-59
2023/10/19 07:47:21;;;;;;;5.10;1.40;;;;;;;19.14;45.43;101636.71;106660;1261;24251;-60
2023/10/19 07:49:51;;;;;;;5.50;1.10;;;;;;;19.18;45.24;101641.42;106585;1262;25410;-60
2023/10/19 07:52:18;;;;;;;4.30;1.20;;;;;;;19.23;45.23;101638.77;106604;1273;25451;-60
2023/10/19 07:54:46;;;;;;;2.30;1.10;;;;;;;19.27;45.09;101638.75;106595;1263;25379;-60
2023/10/19 07:57:14;;;;;;;3.40;1.30;;;;;;;19.31;45.05;101641.02;106540;1262;25499;-60
2023/10/19 07:59:43;;;;;;;2.80;1.20;;;;;;;19.36;45.17;101636.82;106577;1267;25374;-60
2023/10/19 08:02:10;;;;;;;4.30;1.20;;;;;;;19.41;45.05;101636.55;106472;1267;25358;-59
2023/10/19 08:04:37;;;;;;;2.80;1.30;;;;;;;19.45;44.78;101637.94;106604;1258;25431;-62
2023/10/19 08:07:04;;;;;;;2.80;1.30;;;;;;;19.50;44.59;101643.89;106496;1268;25371;-59
2023/10/19 08:09:35;;;;;;;2.00;1.20;;;;;;;19.56;44.29;101643.14;106480;1273;25358;-59
2023/10/19 08:12:05;;;;;;;2.00;1.20;;;;;;;19.61;44.32;101643.60;106544;1265;25386;-60
2023/10/19 08:14:33;;;;;;;2.70;1.40;;;;;;;19.67;44.33;101639.84;106748;1262;25081;-60
2023/10/19 08:17:00;;;;;;;2.60;1.00;;;;;;;19.73;44.38;101637.08;106400;1264;25373;-59
2023/10/19 08:19:30;;;;;;;4.50;1.40;;;;;;;19.79;44.38;101636.98;106646;1273;25356;-60
2023/10/19 08:21:58;;;;;;;4.40;1.80;;;;;;;19.85;44.28;101638.42;106405;1273;25334;-59
2023/10/19 08:24:28;;;;;;;4.00;0.90;;;;;;;19.92;44.54;101632.85;106503;1261;25369;-59
2023/10/19 08:26:56;;;;;;;6.70;1.40;;;;;;;19.98;44.81;101633.09;106232;1278;24290;-59
2023/10/19 08:29:24;;;;;;;5.00;1.40;;;;;;;20.04;45.25;101632.29;106338;1267;25386;-59
2023/10/19 08:31:51;;;;;;;3.80;1.70;;;;;;;20.11;46.09;101635.78;106258;1273;25422;-58
2023/10/19 08:34:20;;;;;;;2.60;1.40;;;;;;;20.18;46.49;101634.95;106520;1265;24299;-56
2023/10/19 08:36:49;;;;;;;2.30;1.20;;;;;;;20.24;46.92;101632.91;106255;1281;25358;-59
2023/10/19 08:39:17;;;;;;;4.10;1.50;;;;;;;20.32;47.09;101632.92;106166;1281;25433;-58
2023/10/19 08:41:46;;;;;;;5.00;1.40;;;;;;;20.39;47.25;101637.33;106358;1278;25432;-58
2023/10/19 08:44:17;;;;;;;3.90;1.20;;;;;;;20.45;47.30;101636.12;106448;1281;22770;-58
2023/10/19 08:46:45;;;;;;;2.80;1.20;;;;;;;20.51;47.22;101635.64;106295;1278;25402;-59
2023/10/19 08:49:12;;;;;;;4.70;1.30;;;;;;;20.57;47.14;101633.21;106211;1277;22653;-58
2023/10/19 08:51:44;;;;;;;2.80;1.40;;;;;;;20.63;46.93;101632.04;106365;1278;25428;-58
2023/10/19 08:54:12;;;;;;;5.40;1.30;;;;;;;20.70;47.04;101634.88;106402;1273;22536;-58
2023/10/19 08:56:41;;;;;;;2.70;1.30;;;;;;;20.77;47.09;101629.91;106356;1263;25389;-58
2023/10/19 08:59:10;;;;;;;6.20;1.40;;;;;;;20.83;46.66;101625.92;106587;1262;22781;-59
2023/10/19 09:01:38;;;;;;;3.20;1.20;;;;;;;20.89;46.84;101617.88;106874;1281;25581;-58
2023/10/19 09:04:05;;;;;;;5.10;1.30;;;;;;;20.93;46.10;101612.70;106392;1267;25383;-58
2023/10/19 09:06:41;;;;;;;3.30;1.20;;;;;;;20.96;45.30;101613.42;106864;1262;24255;-59
2023/10/19 09:09:21;;;;;;;4.50;1.50;;;;;;;20.97;44.87;101610.89;106959;1259;22636;-57
2023/10/19 09:11:48;;;;;;;7.50;1.80;;;;;;;20.98;44.95;101606.06;106463;1273;24228;-59
2023/10/19 09:14:17;;;;;;;6.10;1.40;;;;;;;21.01;45.39;101607.52;106642;1273;25383;-59
2023/10/19 09:16:57;;;;;;;9.20;2.10;;;;;;;21.04;45.13;101605.96;106638;1276;25406;-62
2023/10/19 09:19:48;;;;;;;4.90;1.40;;;;;;;21.08;45.04;101602.45;106741;1273;22541;-62
2023/10/19 09:22:18;;;;;;;5.00;1.60;;;;;;;21.13;44.70;101596.91;106483;1264;25383;-62
2023/10/19 09:24:45;;;;;;;7.20;1.50;;;;;;;21.17;44.99;101594.58;107055;1273;25375;-61
2023/10/19 09:27:13;;;;;;;4.70;1.60;;;;;;;21.21;44.94;101587.48;106480;1270;25358;-62
2023/10/19 09:29:40;;;;;;;4.30;1.60;;;;;;;21.24;44.82;101587.67;106450;1260;24388;-62
2023/10/19 09:32:07;;;;;;;2.60;0.90;;;;;;;21.28;44.89;101584.30;106811;1264;25615;-62
2023/10/19 09:34:35;;;;;;;3.30;1.50;;;;;;;21.31;44.11;101575.86;106809;1262;24221;-63
2023/10/19 09:37:03;;;;;;;3.70;1.50;;;;;;;21.33;44.04;101571.48;106454;1273;22534;-63
2023/10/19 09:39:34;;;;;;;5.60;1.70;;;;;;;21.36;43.87;101567.98;106364;1267;25442;-62
2023/10/19 09:42:10;;;;;;;3.20;1.30;;;;;;;21.40;43.93;101567.39;109144;1257;23191;-62
2023/10/19 09:44:42;;;;;;;6.50;1.90;;;;;;;21.45;44.12;101561.48;106928;1273;25319;-62
2023/10/19 09:47:23;;;;;;;3.80;1.50;;;;;;;21.49;44.31;101561.79;106734;1273;22586;-63
2023/10/19 09:49:50;;;;;;;4.80;1.50;;;;;;;21.52;44.44;101558.95;106525;1266;22533;-61
2023/10/19 09:52:18;;;;;;;3.20;1.60;;;;;;;21.54;44.47;101554.95;106474;1273;22654;-62
2023/10/19 09:54:52;;;;;;;4.20;1.60;;;;;;;21.58;44.15;101556.32;106331;1273;27104;-63
2023/10/19 09:57:27;;;;;;;4.70;1.60;;;;;;;21.62;43.31;101551.85;106533;1277;22630;-62
2023/10/19 09:59:59;;;;;;;8.00;1.60;;;;;;;21.65;42.56;101548.15;106453;1264;25383;-63
2023/10/19 10:02:26;;;;;;;6.50;1.70;;;;;;;21.68;42.71;101547.67;106777;1272;24061;-62
2023/10/19 10:04:54;;;;;;;5.30;1.40;;;;;;;21.71;42.62;101544.84;106551;1273;23913;-63
2023/10/19 10:07:21;;;;;;;4.40;1.80;;;;;;;21.74;42.96;101539.92;106713;1273;22661;-63
2023/10/19 10:10:08;;;;;;;6.60;1.70;;;;;;;21.79;43.31;101536.77;106989;1272;23533;-63
2023/10/19 10:12:36;;;;;;;4.00;1.80;;;;;;;21.97;43.50;101534.54;106731;1261;22663;-63
2023/10/19 10:15:08;;;;;;;2.20;1.50;;;;;;;22.05;42.94;101534.80;106559;1273;25364;-63
2023/10/19 10:17:37;;;;;;;5.70;2.00;;;;;;;22.08;41.66;101527.74;106970;1270;24931;-64
2023/10/19 10:20:29;;;;;;;3.40;1.70;;;;;;;22.11;41.71;101528.64;107018;1265;22746;-64
2023/10/19 10:23:21;;;;;;;10.10;2.60;;;;;;;22.15;41.72;101520.24;106812;1274;25426;-62
2023/10/19 10:25:50;;;;;;;10.30;1.70;;;;;;;22.21;42.41;101521.88;106576;1275;25395;-62
2023/10/19 10:28:18;;;;;;;5.30;1.80;;;;;;;22.05;42.78;101517.86;106880;1262;22569;-63
2023/10/19 10:31:09;;;;;;;2.50;1.50;;;;;;;21.98;42.98;101518.79;107255;1272;23386;-62
2023/10/19 10:33:54;;;;;;;3.30;1.90;;;;;;;21.98;43.19;101515.44;107064;1272;25287;-61
2023/10/19 10:36:22;;;;;;;3.50;1.50;;;;;;;22.01;43.10;101512.41;106727;1270;23197;-63
2023/10/19 10:38:51;;;;;;;7.40;2.30;;;;;;;22.01;43.05;101504.80;106617;1273;22566;-64
2023/10/19 10:41:28;;;;;;;4.20;1.80;;;;;;;22.01;43.41;101500.95;106307;1280;25393;-62
2023/10/19 10:43:56;;;;;;;7.40;2.00;;;;;;;22.00;43.53;101499.79;106668;1273;25449;-63
2023/10/19 10:46:25;;;;;;;4.40;1.90;;;;;;;22.05;43.12;101498.23;106706;1273;24941;-62
2023/10/19 10:48:53;;;;;;;8.00;2.10;;;;;;;22.25;42.21;101499.71;106453;1278;23223;-63
2023/10/19 10:51:25;;;;;;;3.90;2.10;;;;;;;22.31;42.14;101498.64;107009;1276;24074;-62
2023/10/19 10:53:53;;;;;;;2.50;1.50;;;;;;;22.32;42.47;101498.72;105899;1280;1003752;-62
2023/10/19 10:56:22;;;;;;;6.00;1.90;;;;;;;22.35;42.51;101496.77;106507;1276;24407;-61
2023/10/19 10:58:50;;;;;;;4.80;1.80;;;;;;;22.37;42.47;101493.13;106684;1276;22659;-61
2023/10/19 11:01:35;;;;;;;3.30;2.10;;;;;;;22.39;42.31;101487.70;106580;1272;22614;-63
2023/10/19 11:04:07;;;;;;;8.30;2.00;;;;;;;22.42;42.84;101486.85;106662;1273;25358;-62
2023/10/19 11:06:55;;;;;;;3.30;2.10;;;;;;;22.36;42.97;101483.28;106817;1259;24297;-62
2023/10/19 11:09:22;;;;;;;3.50;2.10;;;;;;;22.20;43.20;101480.54;106559;1266;25304;-64
2023/10/19 11:11:49;;;;;;;9.00;2.10;;;;;;;22.22;43.34;101478.51;106686;1276;25417;-63
2023/10/19 11:14:16;;;;;;;8.20;2.30;;;;;;;22.23;43.69;101476.31;106465;1272;25436;-63
2023/10/19 11:16:43;;;;;;;5.70;2.50;;;;;;;22.25;44.18;101473.20;106804;1261;25392;-63
2023/10/19 11:19:11;;;;;;;8.20;2.50;;;;;;;22.25;43.87;101474.08;106882;1264;23208;-63
2023/10/19 11:21:40;;;;;;;4.40;2.00;;;;;;;22.26;44.12;101469.58;106995;1262;23915;-63
2023/10/19 11:24:07;;;;;;;2.70;1.60;;;;;;;22.26;43.92;101468.70;106789;1272;22657;-63
2023/10/19 11:26:39;;;;;;;4.20;2.10;;;;;;;22.28;43.49;101468.58;106366;1262;25459;-62
2023/10/19 11:29:09;;;;;;;8.10;2.90;;;;;;;22.31;43.65;101465.56;105211;1279;1003172;-62
2023/10/19 11:31:41;;;;;;;9.50;3.20;;;;;;;22.33;44.14;101466.90;107014;1272;25350;-62
2023/10/19 11:34:09;;;;;;;5.00;1.90;;;;;;;22.33;43.80;101458.73;106927;1260;25441;-61
2023/10/19 11:36:38;;;;;;;6.80;2.10;;;;;;;22.33;44.24;101450.07;104203;1261;1003114;-61
2023/10/19 11:39:08;;;;;;;7.60;2.60;;;;;;;22.33;44.79;101448.64;106868;1265;25430;-63
2023/10/19 11:41:35;;;;;;;7.10;2.00;;;;;;;22.35;44.08;101443.98;106491;1261;25347;-62
2023/10/19 11:44:03;;;;;;;4.40;1.80;;;;;;;22.35;43.96;101443.77;106957;1268;25510;-61
2023/10/19 11:46:30;;;;;;;4.30;2.20;;;;;;;22.38;43.94;101443.42;106533;1275;23929;-61
2023/10/19 11:48:58;;;;;;;4.50;2.10;;;;;;;22.38;44.09;101442.49;106365;1281;25378;-64
2023/10/19 11:51:24;;;;;;;8.60;2.20;;;;;;;22.39;44.41;101436.98;106728;1273;22652;-62